Time;durP1;ratioP1;P1;durP2;ratioP2;P2;SDS_P1;SDS_P2;PMS_P1;PMS_P2;Temp;Humidity;BMP_temperature;BMP_pressure;BME280_temperature;BME280_humidity;BME280_pressure;Samples;Min_cycle;Max_cycle;Signal;HPM_P1;HPM_P2
2022/02/03 00:01:34;;;;;;;40.33;12.63;;;;;;;;;;5062746;28;20202;-75
2022/02/03 00:04:08;;;;;;;31.17;11.67;;;;;;;;;;5064139;28;20304;-74
2022/02/03 00:06:48;;;;;;;34.20;11.63;;;;;;;;;;5064441;28;20646;-75
2022/02/03 00:09:50;;;;;;;36.47;12.77;;;;;;;;;;5064808;28;20649;-74
2022/02/03 00:23:52;;;;;;;36.17;13.20;;;;;;;;;;5059376;28;20230;-75
2022/02/03 00:26:16;;;;;;;39.97;12.37;;;;;;;;;;5060550;28;20218;-77
2022/02/03 00:28:47;;;;;;;36.10;12.90;;;;;;;;;;5062037;28;20686;-75
2022/02/03 00:31:36;;;;;;;38.63;12.73;;;;;;;;;;5062188;28;20202;-75
2022/02/03 00:34:09;;;;;;;35.57;12.40;;;;;;;;;;5064650;28;20264;-75
2022/02/03 00:37:07;;;;;;;32.90;12.57;;;;;;;;;;5065831;28;20289;-75
2022/02/03 00:50:40;;;;;;;33.27;11.83;;;;;;;;;;5063065;28;20627;-75
2022/02/03 00:53:13;;;;;;;46.83;12.47;;;;;;;;;;5062546;28;20202;-75
2022/02/03 00:55:42;;;;;;;39.90;12.87;;;;;;;;;;5059734;28;20217;-75
2022/02/03 00:58:11;;;;;;;44.10;13.13;;;;;;;;;;5065126;28;20202;-75
2022/02/03 01:00:39;;;;;;;45.10;13.53;;;;;;;;;;5059639;28;20221;-75
2022/02/03 01:03:08;;;;;;;40.23;12.87;;;;;;;;;;5063311;28;20198;-75
2022/02/03 01:05:36;;;;;;;47.47;13.63;;;;;;;;;;5059451;28;20203;-75
2022/02/03 01:08:15;;;;;;;44.47;13.23;;;;;;;;;;5059259;28;20199;-75
2022/02/03 01:10:49;;;;;;;38.50;13.00;;;;;;;;;;5062935;28;20230;-75
2022/02/03 01:13:31;;;;;;;33.10;11.70;;;;;;;;;;5064026;28;20194;-75
2022/02/03 01:16:05;;;;;;;36.90;12.87;;;;;;;;;;5063731;28;20236;-75
2022/02/03 01:18:57;;;;;;;41.90;12.83;;;;;;;;;;5066233;28;20218;-75
2022/02/03 01:21:47;;;;;;;45.00;12.40;;;;;;;;;;5064600;28;20654;-75
2022/02/03 01:36:48;;;;;;;37.33;12.37;;;;;;;;;;5065524;28;20586;-75
2022/02/03 01:43:34;;;;;;;36.77;12.17;;;;;;;;;;5064150;28;20226;-75
2022/02/03 01:46:10;;;;;;;35.00;12.43;;;;;;;;;;5065755;28;20211;-75
2022/02/03 01:48:51;;;;;;;36.20;12.30;;;;;;;;;;5068818;28;20233;-76
2022/02/03 01:51:40;;;;;;;41.73;13.20;;;;;;;;;;5067109;28;20647;-75
2022/02/03 01:54:07;;;;;;;41.77;12.43;;;;;;;;;;5063004;28;20217;-75
2022/02/03 01:56:37;;;;;;;36.17;12.90;;;;;;;;;;5069121;28;20211;-75
2022/02/03 01:59:13;;;;;;;40.40;12.90;;;;;;;;;;5063629;28;20202;-75
2022/02/03 02:01:40;;;;;;;40.77;14.03;;;;;;;;;;5063454;28;20228;-75
2022/02/03 02:04:09;;;;;;;43.77;13.43;;;;;;;;;;5063762;28;20214;-75
2022/02/03 02:06:55;;;;;;;37.83;12.13;;;;;;;;;;5068469;28;20593;-75
2022/02/03 02:09:29;;;;;;;41.47;13.30;;;;;;;;;;5069850;28;20328;-75
2022/02/03 02:12:04;;;;;;;44.77;13.77;;;;;;;;;;5059126;28;20198;-75
2022/02/03 02:15:19;;;;;;;40.47;13.57;;;;;;;;;;5062409;28;20327;-75
2022/02/03 02:37:24;;;;;;;49.13;13.33;;;;;;;;;;5067322;28;20260;-75
2022/02/03 02:40:18;;;;;;;45.27;12.83;;;;;;;;;;5069727;28;20205;-75
2022/02/03 02:42:56;;;;;;;42.63;12.57;;;;;;;;;;5063466;28;20195;-75
2022/02/03 02:45:27;;;;;;;30.83;12.17;;;;;;;;;;5065350;28;20218;-75
2022/02/03 02:47:58;;;;;;;34.23;11.57;;;;;;;;;;5066488;28;20590;-75
2022/02/03 02:50:34;;;;;;;29.47;11.70;;;;;;;;;;5071779;28;20704;-75
2022/02/03 02:53:14;;;;;;;38.10;12.77;;;;;;;;;;5067698;28;20213;-75
2022/02/03 02:55:52;;;;;;;35.70;12.27;;;;;;;;;;5064214;28;20743;-75
2022/02/03 02:58:39;;;;;;;48.93;12.07;;;;;;;;;;5068283;28;20206;-75
2022/02/03 03:04:27;;;;;;;36.73;12.13;;;;;;;;;;5066791;28;20272;-75
2022/02/03 03:29:53;;;;;;;42.90;13.43;;;;;;;;;;5007349;28;20204;-75
2022/02/03 03:32:40;;;;;;;47.27;12.60;;;;;;;;;;5061358;28;20248;-75
2022/02/03 03:35:21;;;;;;;45.57;13.60;;;;;;;;;;5069624;28;20227;-75
2022/02/03 03:37:49;;;;;;;41.73;15.03;;;;;;;;;;5066356;28;20635;-75
2022/02/03 03:40:17;;;;;;;34.93;12.50;;;;;;;;;;5064084;28;20229;-75
2022/02/03 03:42:46;;;;;;;45.30;12.20;;;;;;;;;;5062332;28;20206;-75
2022/02/03 03:45:13;;;;;;;35.83;12.80;;;;;;;;;;5067213;28;20228;-75
2022/02/03 03:47:42;;;;;;;40.33;12.07;;;;;;;;;;5065147;28;20210;-75
2022/02/03 03:50:12;;;;;;;42.63;13.60;;;;;;;;;;5069529;28;20233;-75
2022/02/03 03:52:47;;;;;;;44.30;12.80;;;;;;;;;;5066226;28;20293;-75
2022/02/03 03:55:24;;;;;;;33.43;12.37;;;;;;;;;;5062586;28;20233;-75
2022/02/03 03:58:09;;;;;;;43.90;12.40;;;;;;;;;;5066718;28;20215;-75
2022/02/03 04:00:57;;;;;;;35.47;12.23;;;;;;;;;;5065059;28;20268;-75
2022/02/03 04:29:18;;;;;;;34.17;13.20;;;;;;;;;;5065554;28;20301;-75
2022/02/03 04:32:17;;;;;;;40.83;11.20;;;;;;;;;;5066625;28;20524;-75
2022/02/03 04:38:29;;;;;;;37.73;12.53;;;;;;;;;;5118963;27;20618;-75
2022/02/03 04:44:48;;;;;;;39.43;12.47;;;;;;;;;;5099038;28;20224;-75
2022/02/03 04:56:35;;;;;;;33.57;12.80;;;;;;;;;;5067038;28;20612;-75
2022/02/03 05:02:17;;;;;;;33.47;12.23;;;;;;;;;;5036641;28;20215;-76
2022/02/03 05:04:59;;;;;;;36.67;12.80;;;;;;;;;;5044140;28;20219;-75
2022/02/03 05:07:55;;;;;;;34.93;12.10;;;;;;;;;;5039254;28;20203;-75
2022/02/03 05:10:39;;;;;;;37.03;12.00;;;;;;;;;;5042811;28;20203;-75
2022/02/03 05:13:30;;;;;;;36.73;12.30;;;;;;;;;;5042122;28;20227;-75
2022/02/03 05:16:33;;;;;;;54.30;13.67;;;;;;;;;;5038953;28;20224;-75
2022/02/03 05:19:37;;;;;;;30.83;12.43;;;;;;;;;;5043327;28;20210;-75
2022/02/03 05:25:27;;;;;;;45.63;14.13;;;;;;;;;;4992318;28;20300;-75
2022/02/03 05:43:15;;;;;;;46.53;14.10;;;;;;;;;;5044112;28;20328;-76
2022/02/03 06:02:43;;;;;;;40.30;14.43;;;;;;;;;;5041161;28;20210;-76
2022/02/03 06:05:17;;;;;;;37.67;13.03;;;;;;;;;;5037900;28;20223;-76
2022/02/03 06:07:56;;;;;;;39.07;13.47;;;;;;;;;;5027228;28;20295;-76
2022/02/03 06:13:14;;;;;;;38.63;13.93;;;;;;;;;;5008476;28;20266;-76
2022/02/03 06:15:47;;;;;;;39.83;13.90;;;;;;;;;;5027539;28;20223;-76
2022/02/03 06:23:57;;;;;;;38.77;13.63;;;;;;;;;;5032265;28;20723;-76
2022/02/03 06:29:11;;;;;;;37.57;13.50;;;;;;;;;;5025584;28;20600;-75
2022/02/03 06:31:39;;;;;;;38.00;13.03;;;;;;;;;;5021569;28;20206;-75
2022/02/03 06:34:06;;;;;;;40.83;13.53;;;;;;;;;;5021175;28;20238;-75
2022/02/03 06:36:36;;;;;;;40.10;15.27;;;;;;;;;;5022744;28;20200;-75
2022/02/03 06:39:04;;;;;;;37.63;13.80;;;;;;;;;;5023657;28;20227;-75
2022/02/03 06:41:35;;;;;;;35.37;14.63;;;;;;;;;;5025545;28;20195;-75
2022/02/03 06:44:02;;;;;;;40.20;14.27;;;;;;;;;;5023655;28;20227;-75
2022/02/03 06:46:31;;;;;;;41.07;14.53;;;;;;;;;;5024535;28;20770;-75
2022/02/03 06:49:09;;;;;;;40.73;14.50;;;;;;;;;;5022781;28;20207;-75
2022/02/03 06:51:43;;;;;;;41.33;14.77;;;;;;;;;;5025364;28;20543;-75
2022/02/03 06:54:18;;;;;;;41.40;13.33;;;;;;;;;;5023272;28;20254;-75
2022/02/03 06:56:52;;;;;;;42.73;13.97;;;;;;;;;;5027102;28;20282;-75
2022/02/03 06:59:25;;;;;;;43.30;13.93;;;;;;;;;;5022820;28;20622;-75
2022/02/03 07:01:52;;;;;;;48.30;14.23;;;;;;;;;;5026517;28;20290;-75
2022/02/03 07:04:23;;;;;;;47.27;14.77;;;;;;;;;;5023496;28;20223;-75
2022/02/03 07:06:52;;;;;;;36.10;14.23;;;;;;;;;;5024223;28;20207;-75
2022/02/03 07:09:20;;;;;;;41.27;15.73;;;;;;;;;;5023957;28;20207;-76
2022/02/03 07:11:47;;;;;;;46.53;14.10;;;;;;;;;;5026127;28;20666;-75
2022/02/03 07:14:14;;;;;;;37.43;14.77;;;;;;;;;;5023438;28;20461;-75
2022/02/03 07:16:48;;;;;;;36.07;14.50;;;;;;;;;;5026157;28;20722;-75
2022/02/03 07:19:16;;;;;;;48.20;14.83;;;;;;;;;;5026789;28;20199;-75
2022/02/03 07:21:43;;;;;;;42.87;14.00;;;;;;;;;;5026347;28;20200;-76
2022/02/03 07:24:11;;;;;;;40.77;14.60;;;;;;;;;;5025652;28;20314;-75
2022/02/03 07:26:38;;;;;;;34.00;14.13;;;;;;;;;;5026843;28;20204;-75
2022/02/03 07:29:06;;;;;;;37.07;13.53;;;;;;;;;;5022261;28;20554;-75
2022/02/03 07:31:33;;;;;;;31.83;13.60;;;;;;;;;;5024445;28;20211;-75
2022/02/03 07:34:08;;;;;;;38.60;14.37;;;;;;;;;;5027544;28;20223;-75
2022/02/03 07:36:35;;;;;;;37.30;13.60;;;;;;;;;;5024535;28;20307;-75
2022/02/03 07:39:03;;;;;;;33.47;14.57;;;;;;;;;;5021132;28;20206;-75
2022/02/03 07:41:31;;;;;;;38.50;14.63;;;;;;;;;;5025199;28;20200;-75
2022/02/03 07:43:58;;;;;;;48.03;16.93;;;;;;;;;;5024665;28;20317;-75
2022/02/03 07:46:30;;;;;;;43.07;16.63;;;;;;;;;;5015912;28;20196;-75
2022/02/03 07:48:57;;;;;;;39.47;15.47;;;;;;;;;;5019463;28;20227;-75
2022/02/03 07:51:24;;;;;;;37.03;15.27;;;;;;;;;;5017226;28;20245;-75
2022/02/03 07:53:51;;;;;;;39.47;15.73;;;;;;;;;;5023651;28;20983;-75
2022/02/03 07:56:18;;;;;;;34.60;14.60;;;;;;;;;;5022511;28;20377;-75
2022/02/03 07:58:47;;;;;;;45.83;15.27;;;;;;;;;;5023563;28;20218;-75
2022/02/03 08:01:14;;;;;;;38.23;15.67;;;;;;;;;;5018025;28;20204;-75
2022/02/03 08:03:44;;;;;;;44.43;16.33;;;;;;;;;;5017186;28;20227;-75
2022/02/03 08:06:17;;;;;;;41.77;16.90;;;;;;;;;;5022178;28;20302;-75
2022/02/03 08:08:47;;;;;;;39.00;17.30;;;;;;;;;;5024415;28;20310;-75
2022/02/03 08:11:19;;;;;;;44.00;17.37;;;;;;;;;;5021599;28;20200;-75
2022/02/03 08:13:50;;;;;;;37.07;17.10;;;;;;;;;;5022275;28;20398;-76
2022/02/03 08:16:23;;;;;;;38.50;17.67;;;;;;;;;;5017936;28;20226;-75
2022/02/03 08:18:56;;;;;;;43.67;18.63;;;;;;;;;;5021067;28;20643;-75
2022/02/03 08:21:23;;;;;;;43.57;17.27;;;;;;;;;;5027284;28;20207;-76
2022/02/03 08:26:47;;;;;;;45.90;19.70;;;;;;;;;;5028430;28;20192;-75
2022/02/03 08:29:39;;;;;;;52.17;18.90;;;;;;;;;;5025557;28;20211;-75
2022/02/03 08:32:11;;;;;;;47.87;20.20;;;;;;;;;;5032275;28;20211;-75
2022/02/03 08:34:47;;;;;;;48.90;19.77;;;;;;;;;;5029957;28;20702;-75
2022/02/03 08:37:15;;;;;;;50.57;18.87;;;;;;;;;;5025717;28;20204;-76
2022/02/03 08:39:52;;;;;;;71.13;29.53;;;;;;;;;;5025865;28;20216;-75
2022/02/03 08:42:19;;;;;;;57.33;22.53;;;;;;;;;;5032394;28;20238;-75
2022/02/03 08:44:48;;;;;;;52.90;22.70;;;;;;;;;;5022560;28;20334;-75
2022/02/03 08:47:16;;;;;;;52.33;21.17;;;;;;;;;;5021374;28;20203;-75
2022/02/03 08:49:46;;;;;;;75.30;33.43;;;;;;;;;;5025141;28;20222;-75
2022/02/03 08:52:17;;;;;;;67.27;27.67;;;;;;;;;;5027261;28;20764;-75
2022/02/03 08:54:54;;;;;;;49.70;20.77;;;;;;;;;;5024706;28;20285;-75
2022/02/03 08:57:34;;;;;;;44.93;19.83;;;;;;;;;;5022539;28;20203;-75
2022/02/03 09:00:21;;;;;;;54.60;27.40;;;;;;;;;;5026717;28;20261;-75
2022/02/03 09:36:36;;;;;;;4.83;3.00;;;;;;;;;;4943202;28;20231;-76
2022/02/03 09:39:11;;;;;;;3.73;2.40;;;;;;;;;;5016611;28;20227;-75
2022/02/03 09:42:03;;;;;;;3.33;2.07;;;;;;;;;;5026643;28;20279;-75
2022/02/03 09:50:37;;;;;;;8.43;5.03;;;;;;;;;;5028092;28;20202;-75
2022/02/03 09:53:25;;;;;;;6.20;3.90;;;;;;;;;;5030835;28;20219;-78
2022/02/03 09:56:10;;;;;;;20.80;13.07;;;;;;;;;;5034955;28;20678;-78
2022/02/03 09:58:42;;;;;;;31.73;17.40;;;;;;;;;;5037479;28;20252;-78
2022/02/03 10:01:13;;;;;;;32.27;17.63;;;;;;;;;;5045881;28;20215;-78
2022/02/03 10:03:49;;;;;;;11.10;6.27;;;;;;;;;;5038662;28;20784;-78
2022/02/03 10:06:21;;;;;;;17.93;10.07;;;;;;;;;;5033511;28;20241;-78
2022/02/03 10:08:49;;;;;;;13.03;7.57;;;;;;;;;;5046598;28;20211;-78
2022/02/03 10:11:18;;;;;;;34.27;19.37;;;;;;;;;;5043866;28;20203;-78
2022/02/03 10:13:46;;;;;;;27.97;15.47;;;;;;;;;;5044153;28;20255;-78
2022/02/03 10:16:14;;;;;;;34.93;18.23;;;;;;;;;;5038823;28;20258;-78
2022/02/03 10:18:42;;;;;;;44.10;21.87;;;;;;;;;;5040421;28;20223;-78
2022/02/03 10:21:10;;;;;;;91.77;42.53;;;;;;;;;;5037934;28;20208;-78
2022/02/03 10:23:53;;;;;;;93.87;46.00;;;;;;;;;;5033475;28;20231;-78
2022/02/03 10:26:22;;;;;;;28.80;14.90;;;;;;;;;;5039875;28;20210;-78
2022/02/03 10:28:53;;;;;;;29.37;14.47;;;;;;;;;;5031997;28;20275;-78
2022/02/03 10:31:24;;;;;;;90.23;40.17;;;;;;;;;;5037415;28;20211;-77
2022/02/03 10:34:00;;;;;;;46.57;24.87;;;;;;;;;;5042712;28;20262;-78
2022/02/03 10:36:42;;;;;;;54.50;28.10;;;;;;;;;;5040081;28;20288;-78
2022/02/03 10:39:25;;;;;;;25.23;12.83;;;;;;;;;;5036781;28;20244;-78
2022/02/03 10:42:13;;;;;;;32.57;19.33;;;;;;;;;;5041465;28;20287;-78
2022/02/03 10:48:06;;;;;;;61.23;36.53;;;;;;;;;;5042028;28;20207;-78
2022/02/03 10:50:50;;;;;;;14.23;7.47;;;;;;;;;;5034087;28;20234;-78
2022/02/03 10:56:12;;;;;;;40.83;23.90;;;;;;;;;;5031917;28;20300;-78
2022/02/03 10:58:55;;;;;;;17.73;10.00;;;;;;;;;;5035787;28;20204;-78
2022/02/03 11:07:25;;;;;;;3.53;2.63;;;;;;;;;;5128912;27;20567;-80
2022/02/03 11:09:59;;;;;;;6.23;3.30;;;;;;;;;;5127850;27;20208;-78
2022/02/03 11:12:29;;;;;;;8.60;4.93;;;;;;;;;;5128885;27;20199;-78
2022/02/03 11:14:57;;;;;;;5.13;3.10;;;;;;;;;;5124437;27;20256;-78
2022/02/03 11:17:24;;;;;;;26.17;12.80;;;;;;;;;;5127836;27;20212;-78
2022/02/03 11:19:53;;;;;;;10.07;5.10;;;;;;;;;;5119649;27;20225;-78
2022/02/03 11:22:29;;;;;;;6.80;3.50;;;;;;;;;;5120293;27;20197;-78
2022/02/03 11:25:08;;;;;;;3.43;2.10;;;;;;;;;;5125325;27;20239;-78
2022/02/03 11:27:51;;;;;;;4.47;2.13;;;;;;;;;;5124725;27;20251;-78
2022/02/03 11:47:30;;;;;;;4.10;2.37;;;;;;;;;;5099822;27;20233;-78
2022/02/03 12:12:53;;;;;;;1.93;1.30;;;;;;;;;;5099138;28;20697;-79
2022/02/03 12:18:12;;;;;;;2.57;1.50;;;;;;;;;;5084891;28;20240;-79
2022/02/03 12:20:47;;;;;;;1.27;0.90;;;;;;;;;;5099709;28;20208;-80
2022/02/03 12:23:54;;;;;;;2.70;1.00;;;;;;;;;;5099913;28;20228;-78
2022/02/03 12:26:28;;;;;;;3.80;1.00;;;;;;;;;;5072733;28;20225;-78
2022/02/03 12:28:57;;;;;;;1.40;0.90;;;;;;;;;;5097554;28;20288;-78
2022/02/03 12:39:56;;;;;;;9.37;3.33;;;;;;;;;;5098789;28;20228;-78
2022/02/03 12:45:15;;;;;;;2.07;0.80;;;;;;;;;;5102414;27;20570;-78
2022/02/03 12:47:43;;;;;;;2.83;1.00;;;;;;;;;;5099617;28;20209;-78
2022/02/03 12:50:14;;;;;;;1.43;0.90;;;;;;;;;;5098735;28;20277;-78
2022/02/03 12:52:44;;;;;;;2.90;1.03;;;;;;;;;;5102533;28;20597;-77
2022/02/03 12:55:19;;;;;;;2.33;1.00;;;;;;;;;;5100608;28;20216;-78
2022/02/03 12:57:48;;;;;;;2.00;0.90;;;;;;;;;;5103187;27;20279;-78
2022/02/03 13:00:25;;;;;;;1.87;1.00;;;;;;;;;;5103904;28;20201;-78
2022/02/03 13:02:56;;;;;;;1.03;0.50;;;;;;;;;;5101687;28;20315;-78
2022/02/03 13:05:24;;;;;;;1.73;0.80;;;;;;;;;;5103337;28;20221;-78
2022/02/03 13:07:54;;;;;;;3.33;0.80;;;;;;;;;;5103506;28;20293;-78
2022/02/03 13:10:22;;;;;;;1.00;0.70;;;;;;;;;;5099461;28;20205;-78
2022/02/03 13:12:57;;;;;;;1.50;0.70;;;;;;;;;;5102543;28;20201;-77
2022/02/03 13:15:31;;;;;;;3.17;0.80;;;;;;;;;;5089232;28;20290;-78
2022/02/03 13:18:01;;;;;;;3.17;1.83;;;;;;;;;;5088401;28;20288;-78
2022/02/03 13:20:37;;;;;;;3.23;1.17;;;;;;;;;;5090104;28;20218;-77
2022/02/03 13:23:10;;;;;;;2.97;0.90;;;;;;;;;;5092356;28;20340;-78
2022/02/03 13:25:48;;;;;;;2.17;0.80;;;;;;;;;;5089388;28;20209;-78
2022/02/03 13:28:20;;;;;;;1.10;0.70;;;;;;;;;;5089062;28;20210;-78
2022/02/03 13:30:51;;;;;;;2.00;0.97;;;;;;;;;;5085805;28;20214;-78
2022/02/03 13:33:20;;;;;;;2.87;0.90;;;;;;;;;;5094448;28;20198;-78
2022/02/03 13:35:53;;;;;;;1.03;0.80;;;;;;;;;;5088441;28;20288;-78
2022/02/03 13:38:36;;;;;;;1.03;0.80;;;;;;;;;;5089840;28;20221;-78
2022/02/03 13:41:10;;;;;;;1.97;0.90;;;;;;;;;;5087775;28;20582;-78
2022/02/03 13:43:39;;;;;;;1.50;1.00;;;;;;;;;;5087261;28;20225;-78
2022/02/03 13:46:06;;;;;;;3.83;2.00;;;;;;;;;;5086486;28;20473;-78
2022/02/03 13:48:37;;;;;;;1.17;0.90;;;;;;;;;;5088829;28;20288;-78
2022/02/03 13:51:05;;;;;;;3.53;1.40;;;;;;;;;;5089332;28;20756;-78
2022/02/03 13:53:38;;;;;;;2.60;1.00;;;;;;;;;;5094597;28;20611;-78
2022/02/03 14:16:10;;;;;;;1.63;1.00;;;;;;;;;;5087821;28;20196;-77
2022/02/03 14:21:37;;;;;;;2.40;1.30;;;;;;;;;;5055619;28;20205;-78
2022/02/03 14:27:13;;;;;;;3.70;1.60;;;;;;;;;;5089148;28;20208;-78
2022/02/03 14:29:45;;;;;;;7.83;1.60;;;;;;;;;;5098291;28;20313;-77
2022/02/03 14:32:15;;;;;;;9.63;6.73;;;;;;;;;;5085515;28;20610;-78
2022/02/03 14:34:42;;;;;;;5.60;2.80;;;;;;;;;;5086981;28;20233;-78
2022/02/03 14:37:16;;;;;;;2.70;1.40;;;;;;;;;;5092137;28;20292;-78
2022/02/03 14:40:00;;;;;;;4.43;2.87;;;;;;;;;;5094897;28;20205;-77
2022/02/03 14:42:34;;;;;;;4.30;2.03;;;;;;;;;;5097759;28;20236;-77
2022/02/03 14:45:01;;;;;;;3.30;1.60;;;;;;;;;;5094123;28;20222;-78
2022/02/03 14:47:30;;;;;;;2.77;1.30;;;;;;;;;;5084446;28;20221;-78
2022/02/03 14:50:00;;;;;;;0.93;0.60;;;;;;;;;;5089092;28;20267;-78
2022/02/03 14:52:30;;;;;;;2.10;0.70;;;;;;;;;;5090880;28;20280;-78
2022/02/03 14:58:04;;;;;;;3.93;1.83;;;;;;;;;;5056278;28;20547;-78
2022/02/03 15:00:31;;;;;;;2.93;2.07;;;;;;;;;;5086090;28;20611;-78
2022/02/03 15:02:59;;;;;;;3.97;2.10;;;;;;;;;;5087418;28;20284;-77
2022/02/03 15:05:29;;;;;;;2.77;1.93;;;;;;;;;;5080306;28;20222;-77
2022/02/03 15:07:58;;;;;;;4.87;1.50;;;;;;;;;;5090761;28;20229;-77
2022/02/03 15:13:17;;;;;;;12.53;5.67;;;;;;;;;;5082184;28;20683;-78
2022/02/03 15:15:44;;;;;;;6.60;2.90;;;;;;;;;;5084549;28;20606;-78
2022/02/03 15:18:12;;;;;;;1.67;1.03;;;;;;;;;;5088898;28;20205;-77
2022/02/03 15:20:39;;;;;;;1.77;1.13;;;;;;;;;;5078186;28;20304;-78
2022/02/03 15:23:08;;;;;;;4.60;2.67;;;;;;;;;;5085844;28;20289;-78
2022/02/03 15:25:35;;;;;;;2.30;1.30;;;;;;;;;;5084770;28;20719;-78
2022/02/03 15:28:02;;;;;;;4.40;2.00;;;;;;;;;;5089331;28;20292;-78
2022/02/03 15:30:31;;;;;;;2.40;1.70;;;;;;;;;;5086615;28;20262;-78
2022/02/03 15:32:58;;;;;;;4.10;2.40;;;;;;;;;;5083428;28;20212;-78
2022/02/03 15:35:30;;;;;;;5.80;3.00;;;;;;;;;;5084068;28;20245;-77
2022/02/03 15:37:59;;;;;;;4.60;2.10;;;;;;;;;;5075881;28;20320;-77
2022/02/03 15:40:28;;;;;;;5.90;3.23;;;;;;;;;;5078704;28;20699;-77
2022/02/03 15:43:01;;;;;;;6.90;4.00;;;;;;;;;;5079156;28;20222;-77
2022/02/03 15:45:33;;;;;;;10.43;4.20;;;;;;;;;;5087003;28;20229;-76
2022/02/03 15:48:08;;;;;;;10.63;7.83;;;;;;;;;;5084496;28;20220;-77
2022/02/03 15:51:09;;;;;;;9.00;5.10;;;;;;;;;;5081816;28;20205;-76
2022/02/03 16:18:23;;;;;;;5.47;2.70;;;;;;;;;;5069296;28;20236;-74
2022/02/03 16:20:58;;;;;;;6.93;2.80;;;;;;;;;;5074745;28;20289;-74
2022/02/03 16:23:54;;;;;;;5.17;2.80;;;;;;;;;;5075109;28;20265;-74
2022/02/03 16:26:55;;;;;;;17.43;9.60;;;;;;;;;;5076599;28;20598;-74
2022/02/03 16:51:39;;;;;;;42.13;25.10;;;;;;;;;;5082876;28;20200;-75
2022/02/03 16:54:12;;;;;;;10.33;6.73;;;;;;;;;;5083376;28;20816;-75
2022/02/03 16:56:39;;;;;;;40.20;21.90;;;;;;;;;;5084752;28;20204;-75
2022/02/03 16:59:06;;;;;;;17.67;8.73;;;;;;;;;;5086595;28;20288;-75
2022/02/03 17:01:33;;;;;;;8.03;4.30;;;;;;;;;;5086054;28;20198;-75
2022/02/03 17:04:00;;;;;;;17.30;7.20;;;;;;;;;;5085265;28;20312;-75
2022/02/03 17:06:27;;;;;;;5.83;2.87;;;;;;;;;;5083951;28;20205;-75
2022/02/03 17:08:55;;;;;;;3.10;1.60;;;;;;;;;;5085986;28;20201;-75
2022/02/03 17:11:23;;;;;;;5.40;3.07;;;;;;;;;;5081952;28;20572;-74
2022/02/03 17:13:52;;;;;;;4.73;2.60;;;;;;;;;;5079752;28;20840;-75
2022/02/03 17:16:22;;;;;;;6.73;2.40;;;;;;;;;;5085893;28;20640;-75
2022/02/03 17:18:50;;;;;;;7.77;2.60;;;;;;;;;;5080128;28;20210;-75
2022/02/03 17:21:18;;;;;;;3.83;2.63;;;;;;;;;;5087559;28;20209;-75
2022/02/03 17:23:45;;;;;;;4.70;2.63;;;;;;;;;;5082859;28;20234;-75
2022/02/03 17:26:17;;;;;;;8.13;3.77;;;;;;;;;;5085999;28;20214;-75
2022/02/03 17:28:51;;;;;;;5.50;3.30;;;;;;;;;;5079467;28;20244;-75
2022/02/03 17:31:25;;;;;;;7.37;4.43;;;;;;;;;;5083736;28;20197;-75
2022/02/03 17:45:23;;;;;;;9.23;4.67;;;;;;;;;;5087694;28;20244;-75
2022/02/03 18:05:08;;;;;;;17.23;9.70;;;;;;;;;;5082437;28;20253;-75
2022/02/03 18:08:01;;;;;;;14.57;7.97;;;;;;;;;;5087009;28;20241;-75
2022/02/03 18:10:36;;;;;;;12.77;7.50;;;;;;;;;;5083052;28;20615;-75
2022/02/03 18:27:51;;;;;;;23.73;11.67;;;;;;;;;;5084688;28;21705;-75
2022/02/03 18:32:53;;;;;;;14.33;7.50;;;;;;;;;;5085162;28;20292;-75
2022/02/03 18:35:32;;;;;;;8.77;5.10;;;;;;;;;;5085058;28;20768;-75
2022/02/03 18:51:46;;;;;;;9.10;4.67;;;;;;;;;;5086779;28;20194;-75
2022/02/03 18:54:20;;;;;;;54.67;18.87;;;;;;;;;;5081838;28;20233;-75
2022/02/03 18:56:55;;;;;;;39.17;14.60;;;;;;;;;;5083401;28;20571;-75
2022/02/03 18:59:47;;;;;;;36.70;14.27;;;;;;;;;;5083979;28;20258;-75
2022/02/03 19:16:21;;;;;;;9.63;5.10;;;;;;;;;;5052641;28;20210;-75
2022/02/03 19:25:02;;;;;;;12.33;6.83;;;;;;;;;;4999436;28;20263;-75
2022/02/03 20:03:54;;;;;;;25.57;12.00;;;;;;;;;;5081696;28;20328;-75
2022/02/03 20:06:33;;;;;;;20.77;10.50;;;;;;;;;;5082778;28;20595;-75
2022/02/03 20:09:09;;;;;;;28.63;12.87;;;;;;;;;;5083185;28;20209;-75
2022/02/03 20:11:37;;;;;;;27.37;12.73;;;;;;;;;;5083829;28;20201;-76
2022/02/03 20:14:12;;;;;;;21.63;10.00;;;;;;;;;;5083993;28;20609;-75
2022/02/03 20:16:39;;;;;;;15.20;7.77;;;;;;;;;;5081354;28;20230;-75
2022/02/03 20:19:06;;;;;;;16.00;8.37;;;;;;;;;;5083556;28;20201;-75
2022/02/03 20:21:35;;;;;;;14.07;7.77;;;;;;;;;;5081403;28;20254;-75
2022/02/03 20:24:04;;;;;;;13.73;7.60;;;;;;;;;;5077357;28;20245;-75
2022/02/03 20:26:31;;;;;;;16.30;6.83;;;;;;;;;;5079489;28;20293;-75
2022/02/03 20:28:58;;;;;;;15.80;8.13;;;;;;;;;;5081923;28;20588;-75
2022/02/03 20:31:27;;;;;;;12.00;6.63;;;;;;;;;;5080780;28;20731;-76
2022/02/03 20:33:54;;;;;;;11.67;6.83;;;;;;;;;;5078096;28;20356;-75
2022/02/03 20:36:23;;;;;;;13.13;7.40;;;;;;;;;;5080326;28;20212;-75
2022/02/03 20:38:51;;;;;;;13.33;6.73;;;;;;;;;;5087095;28;20278;-76
2022/02/03 20:41:18;;;;;;;15.80;8.23;;;;;;;;;;5082754;28;20687;-75
2022/02/03 20:43:45;;;;;;;20.47;11.07;;;;;;;;;;5085509;28;20233;-75
2022/02/03 20:46:14;;;;;;;12.77;6.90;;;;;;;;;;5086618;28;20289;-75
2022/02/03 20:48:46;;;;;;;11.10;6.37;;;;;;;;;;5082802;28;20201;-75
2022/02/03 20:51:14;;;;;;;11.90;6.07;;;;;;;;;;5085191;28;20281;-75
2022/02/03 20:53:41;;;;;;;15.37;6.97;;;;;;;;;;5086599;28;20228;-75
2022/02/03 20:56:09;;;;;;;14.60;7.00;;;;;;;;;;5084361;28;20209;-75
2022/02/03 20:58:36;;;;;;;11.53;6.73;;;;;;;;;;5085985;28;20206;-75
2022/02/03 21:01:11;;;;;;;11.57;7.47;;;;;;;;;;5087162;28;20206;-75
2022/02/03 21:03:41;;;;;;;18.93;8.97;;;;;;;;;;5087131;28;20228;-75
2022/02/03 21:06:11;;;;;;;18.27;8.83;;;;;;;;;;5084389;28;20208;-75
2022/02/03 21:08:40;;;;;;;18.60;8.60;;;;;;;;;;5085707;28;20277;-75
2022/02/03 21:11:07;;;;;;;15.40;7.73;;;;;;;;;;5085529;28;20199;-75
2022/02/03 21:13:35;;;;;;;21.23;8.97;;;;;;;;;;5084026;28;20226;-76
2022/02/03 21:16:05;;;;;;;19.93;9.30;;;;;;;;;;5087720;28;20292;-75
2022/02/03 21:18:36;;;;;;;19.17;8.80;;;;;;;;;;5087308;28;20201;-75
2022/02/03 21:21:03;;;;;;;15.60;7.10;;;;;;;;;;5086795;28;20202;-75
2022/02/03 21:23:32;;;;;;;15.50;7.43;;;;;;;;;;5084386;28;20251;-75
2022/02/03 21:26:01;;;;;;;15.93;7.27;;;;;;;;;;5085097;28;20225;-76
2022/02/03 21:28:30;;;;;;;11.43;6.17;;;;;;;;;;5085644;28;20213;-75
2022/02/03 21:30:58;;;;;;;10.33;5.47;;;;;;;;;;5084507;28;20209;-75
2022/02/03 21:33:29;;;;;;;10.53;5.77;;;;;;;;;;5085187;28;20202;-75
2022/02/03 21:35:58;;;;;;;8.67;4.77;;;;;;;;;;5086609;28;20717;-75
2022/02/03 21:38:26;;;;;;;11.87;5.90;;;;;;;;;;5088108;28;20697;-75
2022/02/03 21:40:54;;;;;;;11.73;5.83;;;;;;;;;;5083586;28;20243;-75
2022/02/03 21:43:21;;;;;;;10.30;5.60;;;;;;;;;;5083707;28;20202;-75
2022/02/03 21:45:49;;;;;;;12.00;5.83;;;;;;;;;;5083350;28;20229;-75
2022/02/03 21:48:16;;;;;;;11.93;6.60;;;;;;;;;;5084283;28;20214;-75
2022/02/03 21:50:43;;;;;;;12.17;6.83;;;;;;;;;;5087997;28;20202;-75
2022/02/03 21:53:16;;;;;;;20.20;6.80;;;;;;;;;;5082985;28;20293;-75
2022/02/03 21:55:45;;;;;;;11.77;6.03;;;;;;;;;;5085334;28;20194;-75
2022/02/03 21:58:14;;;;;;;11.27;5.73;;;;;;;;;;5085457;28;20210;-75
2022/02/03 22:00:41;;;;;;;10.80;6.17;;;;;;;;;;5086643;28;20209;-75
2022/02/03 22:03:08;;;;;;;10.83;6.33;;;;;;;;;;5085665;28;20305;-75
2022/02/03 22:05:36;;;;;;;13.13;7.43;;;;;;;;;;5084763;28;20217;-75
2022/02/03 22:08:04;;;;;;;16.23;8.70;;;;;;;;;;5084205;28;20202;-75
2022/02/03 22:10:31;;;;;;;21.73;10.43;;;;;;;;;;5086440;28;20811;-75
2022/02/03 22:12:58;;;;;;;15.73;8.47;;;;;;;;;;5082224;28;20203;-75
2022/02/03 22:15:28;;;;;;;15.20;7.67;;;;;;;;;;5086146;28;20217;-75
2022/02/03 22:17:56;;;;;;;14.10;7.30;;;;;;;;;;5085614;28;20210;-75
2022/02/03 22:20:28;;;;;;;16.67;7.37;;;;;;;;;;5082709;28;20300;-75
2022/02/03 22:23:13;;;;;;;10.90;6.40;;;;;;;;;;5086246;28;20252;-75
2022/02/03 22:26:11;;;;;;;13.30;6.60;;;;;;;;;;5084075;28;20814;-75
2022/02/03 22:29:17;;;;;;;10.17;5.73;;;;;;;;;;5085809;28;20305;-75
2022/02/03 22:43:03;;;;;;;11.67;6.63;;;;;;;;;;5083494;28;20579;-75
2022/02/03 22:45:49;;;;;;;15.17;7.03;;;;;;;;;;5084785;28;20221;-75
2022/02/03 22:48:25;;;;;;;13.33;7.00;;;;;;;;;;5082628;28;20250;-75
2022/02/03 22:50:53;;;;;;;11.73;6.70;;;;;;;;;;5085568;28;20271;-75
2022/02/03 22:53:20;;;;;;;13.30;7.13;;;;;;;;;;5080243;28;20575;-75
2022/02/03 22:55:47;;;;;;;14.57;6.90;;;;;;;;;;5081354;28;20232;-75
2022/02/03 22:58:34;;;;;;;13.50;7.13;;;;;;;;;;5082836;28;20200;-75
2022/02/03 23:01:02;;;;;;;12.33;6.57;;;;;;;;;;5085231;28;20220;-75
2022/02/03 23:03:31;;;;;;;12.57;6.60;;;;;;;;;;5085352;28;20230;-75
2022/02/03 23:05:59;;;;;;;15.90;7.03;;;;;;;;;;5084767;28;20256;-75
2022/02/03 23:08:31;;;;;;;13.20;6.80;;;;;;;;;;5081459;28;20233;-75
2022/02/03 23:11:09;;;;;;;11.83;6.40;;;;;;;;;;5082352;28;20661;-75
2022/02/03 23:14:01;;;;;;;11.47;6.40;;;;;;;;;;5081011;28;20217;-75